createdAt,value
2022-09-15T00:00:55.135Z,97288.84
2022-09-15T00:03:23.422Z,97302.72
2022-09-15T00:05:51.927Z,97298.38
2022-09-15T00:08:18.466Z,97298.28
2022-09-15T00:10:58.355Z,97289.31
2022-09-15T00:13:25.641Z,97290.69
2022-09-15T00:15:52.300Z,97294.09
2022-09-15T00:18:19.097Z,97290.72
2022-09-15T00:20:46.019Z,97282.56
2022-09-15T00:23:14.396Z,97267.06
2022-09-15T00:25:45.814Z,97273.72
2022-09-15T00:28:17.090Z,97264.25
2022-09-15T00:30:46.195Z,97270.31
2022-09-15T00:33:14.864Z,97271.75
2022-09-15T00:35:45.862Z,97258.59
2022-09-15T00:38:17.674Z,97278.75
2022-09-15T00:40:49.656Z,97287.25
2022-09-15T00:43:18.293Z,97282.13
2022-09-15T00:45:46.172Z,97276.53
2022-09-15T00:48:17.317Z,97285.28
2022-09-15T00:50:49.822Z,97274.56
2022-09-15T00:53:19.232Z,97270.47
2022-09-15T00:55:50.797Z,97283.28
2022-09-15T00:58:27.017Z,97287.56
2022-09-15T01:01:00.063Z,97276.06
2022-09-15T01:03:29.981Z,97291.09
2022-09-15T01:06:09.101Z,97282.59
2022-09-15T01:08:52.228Z,97278.41
2022-09-15T01:11:18.978Z,97293.66
2022-09-15T01:13:49.023Z,97291.09
2022-09-15T01:19:37.243Z,97290.06
2022-09-15T01:22:09.585Z,97293.66
2022-09-15T01:24:46.776Z,97286.09
2022-09-15T01:27:41.096Z,97299.03
2022-09-15T01:30:06.149Z,97297.59
2022-09-15T01:33:04.418Z,97293.78
2022-09-15T01:35:40.175Z,97299.94
2022-09-15T01:38:11.180Z,97296.75
2022-09-15T01:40:44.816Z,97285.88
2022-09-15T01:43:12.812Z,97291.03
2022-09-15T01:45:43.208Z,97296.59
2022-09-15T01:48:11.040Z,97293.50
2022-09-15T01:50:43.109Z,97293.63
2022-09-15T01:53:15.481Z,97285.56
2022-09-15T01:55:51.983Z,97287.28
2022-09-15T01:58:18.488Z,97256.69
2022-09-15T02:00:49.894Z,97272.34
2022-09-15T02:03:33.799Z,97279.97
2022-09-15T02:06:07.218Z,97278.22
2022-09-15T02:09:11.121Z,97287.84
2022-09-15T02:11:47.988Z,97279.47
2022-09-15T02:14:21.881Z,97279.50
2022-09-15T02:16:54.177Z,97279.75
2022-09-15T02:19:41.139Z,97274.00
2022-09-15T02:22:23.684Z,97272.56
2022-09-15T02:25:02.961Z,97273.78
2022-09-15T02:27:32.249Z,97273.53
2022-09-15T02:30:09.828Z,97289.47
2022-09-15T02:32:38.473Z,97264.16
2022-09-15T02:35:08.059Z,97275.84
2022-09-15T02:37:37.291Z,97279.09
2022-09-15T02:40:05.563Z,97278.59
2022-09-15T02:42:33.295Z,97275.13
2022-09-15T02:45:01.145Z,97284.31
2022-09-15T02:47:28.522Z,97291.91
2022-09-15T02:49:55.633Z,97295.97
2022-09-15T02:52:25.844Z,97267.34
2022-09-15T02:54:55.409Z,97287.38
2022-09-15T02:57:21.978Z,97287.38
2022-09-15T03:00:06.794Z,97277.94
2022-09-15T03:02:34.005Z,97292.53
2022-09-15T03:05:00.633Z,97300.63
2022-09-15T03:07:28.468Z,97291.44
2022-09-15T03:09:55.309Z,97296.91
2022-09-15T03:12:23.050Z,97274.44
2022-09-15T03:14:50.411Z,97277.34
2022-09-15T03:17:17.902Z,97286.56
2022-09-15T03:19:45.392Z,97280.75
2022-09-15T03:22:11.928Z,97279.31
2022-09-15T03:24:38.883Z,97291.69
2022-09-15T03:27:05.850Z,97296.94
2022-09-15T03:29:32.352Z,97300.66
2022-09-15T03:31:58.904Z,97296.47
2022-09-15T03:34:25.470Z,97288.78
2022-09-15T03:36:51.966Z,97285.41
2022-09-15T03:39:18.475Z,97301.72
2022-09-15T03:41:44.976Z,97271.41
2022-09-15T03:44:11.484Z,97294.47
2022-09-15T03:46:37.994Z,97292.16
2022-09-15T03:49:04.509Z,97271.16
2022-09-15T03:51:31.073Z,97291.78
2022-09-15T03:53:57.572Z,97289.25
2022-09-15T03:56:27.461Z,97307.31
2022-09-15T03:58:54.445Z,97301.50
2022-09-15T04:01:21.329Z,97303.44
2022-09-15T04:03:51.138Z,97300.91
2022-09-15T04:06:20.934Z,97304.28
2022-09-15T04:08:48.697Z,97282.94
2022-09-15T04:11:15.865Z,97293.91
2022-09-15T04:13:43.351Z,97298.22
2022-09-15T04:16:16.553Z,97309.16
2022-09-15T04:18:43.462Z,97303.56
2022-09-15T04:21:15.985Z,97310.31
2022-09-15T04:23:44.326Z,97306.03
2022-09-15T04:26:26.151Z,97303.94
2022-09-15T04:28:53.116Z,97292.97
2022-09-15T04:31:20.482Z,97301.13
2022-09-15T04:33:47.350Z,97297.50
2022-09-15T04:36:16.967Z,97305.78
2022-09-15T04:38:44.575Z,97283.75
2022-09-15T04:41:12.176Z,97303.34
2022-09-15T04:43:39.354Z,97306.00
2022-09-15T04:46:06.589Z,97304.75
2022-09-15T04:48:33.747Z,97310.19
2022-09-15T04:51:13.618Z,97306.47
2022-09-15T04:53:40.853Z,97292.72
2022-09-15T04:56:10.820Z,97310.69
2022-09-15T04:59:03.126Z,97312.53
2022-09-15T05:01:34.093Z,97311.50
2022-09-15T05:04:04.656Z,97303.56
2022-09-15T05:06:31.226Z,97311.63
2022-09-15T05:09:01.113Z,97320.00
2022-09-15T05:11:31.127Z,97304.53
2022-09-15T05:14:00.681Z,97308.00
2022-09-15T05:16:29.292Z,97308.34
2022-09-15T05:18:58.100Z,97322.09
2022-09-15T05:21:25.890Z,97320.84
2022-09-15T05:23:53.396Z,97319.66
2022-09-15T05:26:22.599Z,97318.84
2022-09-15T05:28:50.124Z,97302.88
2022-09-15T05:31:29.181Z,97321.75
2022-09-15T05:33:55.750Z,97322.94
2022-09-15T05:36:25.258Z,97328.50
2022-09-15T05:38:59.529Z,97332.47
2022-09-15T05:41:28.402Z,97329.56
2022-09-15T05:44:00.659Z,97323.53
2022-09-15T05:46:29.197Z,97307.88
2022-09-15T05:48:58.269Z,97328.72
2022-09-15T05:51:25.030Z,97315.34
2022-09-15T05:53:51.855Z,97324.91
2022-09-15T05:56:20.165Z,97312.41
2022-09-15T05:58:47.912Z,97322.44
2022-09-15T06:01:17.549Z,97323.72
2022-09-15T06:03:44.584Z,97343.22
2022-09-15T06:06:12.166Z,97316.84
2022-09-15T06:08:56.885Z,97344.34
2022-09-15T06:11:29.919Z,97331.97
2022-09-15T06:13:59.273Z,97348.19
2022-09-15T06:16:26.789Z,97333.75
2022-09-15T06:18:53.955Z,97328.13
2022-09-15T06:21:23.765Z,97356.53
2022-09-15T06:23:58.852Z,97354.78
2022-09-15T06:26:29.249Z,97353.81
2022-09-15T06:28:58.469Z,97362.06
2022-09-15T06:31:27.280Z,97359.56
2022-09-15T06:36:37.882Z,97370.44
2022-09-15T06:39:04.945Z,97363.69
2022-09-15T06:41:52.419Z,97371.00
2022-09-15T06:44:19.517Z,97379.19
2022-09-15T06:46:46.523Z,97378.94
2022-09-15T06:49:13.064Z,97378.16
2022-09-15T06:51:39.822Z,97372.28
2022-09-15T06:54:06.537Z,97381.50
2022-09-15T06:56:37.631Z,97381.78
2022-09-15T06:59:04.842Z,97387.38
2022-09-15T07:01:32.227Z,97388.63
2022-09-15T07:04:01.223Z,97391.53
2022-09-15T07:06:29.852Z,97390.25
2022-09-15T07:08:57.158Z,97395.94
2022-09-15T07:11:24.076Z,97395.03
2022-09-15T07:13:51.198Z,97393.84
2022-09-15T07:16:19.414Z,97400.69
2022-09-15T07:18:47.308Z,97401.34
2022-09-15T07:21:16.656Z,97403.94
2022-09-15T07:23:43.998Z,97403.91
2022-09-15T07:26:16.068Z,97391.41
2022-09-15T07:28:44.886Z,97403.13
2022-09-15T07:31:15.684Z,97405.22
2022-09-15T07:33:42.436Z,97410.56
2022-09-15T07:36:10.162Z,97406.63
2022-09-15T07:38:41.600Z,97387.31
2022-09-15T07:41:13.543Z,97412.00
2022-09-15T07:43:40.561Z,97404.84
2022-09-15T07:46:07.505Z,97400.44
2022-09-15T07:48:34.128Z,97405.13
2022-09-15T07:51:02.799Z,97400.28
2022-09-15T07:53:32.081Z,97404.31
2022-09-15T07:55:58.672Z,97399.22
2022-09-15T07:58:25.525Z,97410.53
2022-09-15T08:00:52.231Z,97414.03
2022-09-15T08:03:18.955Z,97408.66
2022-09-15T08:05:45.945Z,97411.13
2022-09-15T08:08:12.852Z,97403.13
2022-09-15T08:10:41.256Z,97419.97
2022-09-15T08:13:08.206Z,97422.03
2022-09-15T08:15:40.685Z,97425.38
2022-09-15T08:18:18.486Z,97418.19
2022-09-15T08:20:45.130Z,97418.47
2022-09-15T08:23:11.719Z,97429.88
2022-09-15T08:25:38.859Z,97429.44
2022-09-15T08:28:05.650Z,97428.75
2022-09-15T08:30:32.256Z,97433.91
2022-09-15T08:32:58.771Z,97434.75
2022-09-15T08:35:25.294Z,97437.47
2022-09-15T08:37:53.795Z,97433.16
2022-09-15T08:40:26.771Z,97432.63
2022-09-15T08:42:57.746Z,97440.78
2022-09-15T08:45:35.816Z,97449.97
2022-09-15T08:48:05.887Z,97443.72
2022-09-15T08:50:38.879Z,97446.41
2022-09-15T08:53:09.721Z,97450.47
2022-09-15T08:55:42.910Z,97440.50
2022-09-15T08:58:16.555Z,97435.47
2022-09-15T09:00:45.641Z,97441.22
2022-09-15T09:03:35.580Z,97442.31
2022-09-15T09:06:19.941Z,97439.72
2022-09-15T09:08:46.409Z,97452.72
2022-09-15T09:11:44.934Z,97450.34
2022-09-15T09:14:17.186Z,97447.31
2022-09-15T09:17:43.727Z,97450.41
2022-09-15T09:20:39.563Z,97448.38
2022-09-15T09:23:17.861Z,97440.47
2022-09-15T09:25:45.076Z,97444.41
2022-09-15T09:28:31.966Z,97444.31
2022-09-15T09:31:02.958Z,97439.56
2022-09-15T09:33:47.803Z,97442.97
2022-09-15T09:36:14.782Z,97447.66
2022-09-15T09:38:44.898Z,97451.56
2022-09-15T09:41:15.349Z,97451.16
2022-09-15T09:43:47.655Z,97456.38
2022-09-15T09:46:17.639Z,97467.09
2022-09-15T09:48:50.179Z,97467.06
2022-09-15T09:51:36.242Z,97463.63
2022-09-15T09:54:16.565Z,97466.72
2022-09-15T09:56:44.535Z,97461.03
2022-09-15T09:59:41.478Z,97450.75
2022-09-15T10:02:11.017Z,97453.91
2022-09-15T10:04:43.051Z,97439.22
2022-09-15T10:07:10.249Z,97443.56
2022-09-15T10:09:37.848Z,97444.13
2022-09-15T10:12:05.890Z,97428.88
2022-09-15T10:14:41.304Z,97438.13
2022-09-15T10:17:13.018Z,97420.75
2022-09-15T10:19:48.658Z,97432.31
2022-09-15T10:22:38.479Z,97433.56
2022-09-15T10:25:39.734Z,97421.56
2022-09-15T10:28:16.124Z,97421.44
2022-09-15T10:31:02.644Z,97438.13
2022-09-15T10:33:35.346Z,97427.66
2022-09-15T10:36:14.582Z,97438.31
2022-09-15T10:38:45.122Z,97421.53
2022-09-15T10:41:31.872Z,97431.31
2022-09-15T10:44:27.247Z,97434.81
2022-09-15T10:47:17.905Z,97429.94
2022-09-15T10:50:15.356Z,97428.84
2022-09-15T10:53:03.718Z,97424.78
2022-09-15T10:55:52.221Z,97429.66
2022-09-15T10:58:31.564Z,97425.88
2022-09-15T11:01:28.605Z,97426.72
2022-09-15T11:04:23.430Z,97434.00
2022-09-15T11:06:52.751Z,97432.59
2022-09-15T11:09:28.931Z,97431.50
2022-09-15T11:12:27.072Z,97438.81
2022-09-15T11:15:28.021Z,97425.56
2022-09-15T11:18:07.661Z,97428.53
2022-09-15T11:20:50.770Z,97434.22
2022-09-15T11:23:24.482Z,97424.28
2022-09-15T11:25:56.999Z,97428.03
2022-09-15T11:28:33.935Z,97435.22
2022-09-15T11:31:09.045Z,97418.88
2022-09-15T11:33:46.361Z,97421.59
2022-09-15T11:36:31.707Z,97426.97
2022-09-15T11:39:11.587Z,97421.16
2022-09-15T11:41:51.188Z,97418.72
2022-09-15T11:44:20.635Z,97427.97
2022-09-15T11:47:08.150Z,97434.00
2022-09-15T11:49:40.477Z,97428.56
2022-09-15T11:52:18.965Z,97433.16
2022-09-15T11:54:54.100Z,97435.22
2022-09-15T11:57:27.146Z,97435.78
2022-09-15T12:00:01.557Z,97436.81
2022-09-15T12:02:31.358Z,97433.16
2022-09-15T12:05:17.604Z,97442.84
2022-09-15T12:07:56.652Z,97429.97
2022-09-15T12:10:46.535Z,97441.38
2022-09-15T12:13:21.250Z,97424.56
2022-09-15T12:15:49.803Z,97433.06
2022-09-15T12:18:46.728Z,97433.81
2022-09-15T12:21:19.928Z,97440.09
2022-09-15T12:23:52.032Z,97436.28
2022-09-15T12:26:24.571Z,97418.91
2022-09-15T12:29:05.492Z,97425.94
2022-09-15T12:31:34.032Z,97435.47
2022-09-15T12:34:36.594Z,97422.25
2022-09-15T12:37:13.692Z,97430.59
2022-09-15T12:39:45.550Z,97422.06
2022-09-15T12:42:24.863Z,97423.91
2022-09-15T12:45:16.083Z,97414.09
2022-09-15T12:47:54.963Z,97408.88
2022-09-15T12:50:27.295Z,97416.09
2022-09-15T12:52:59.375Z,97410.41
2022-09-15T12:55:35.371Z,97408.50
2022-09-15T12:58:09.243Z,97410.28
2022-09-15T13:00:42.325Z,97407.91
2022-09-15T13:06:22.013Z,97409.91
2022-09-15T13:09:09.646Z,97408.25
2022-09-15T13:11:47.538Z,97406.25
2022-09-15T13:14:21.518Z,97412.56
2022-09-15T13:17:16.677Z,97413.69
2022-09-15T13:19:49.073Z,97408.28
2022-09-15T13:22:33.937Z,97408.34
2022-09-15T13:25:07.309Z,97411.91
2022-09-15T13:27:54.204Z,97400.28
2022-09-15T13:30:20.726Z,97417.06
2022-09-15T13:32:59.142Z,97409.78
2022-09-15T13:35:51.701Z,97410.09
2022-09-15T13:38:58.182Z,97397.94
2022-09-15T13:41:58.719Z,97403.13
2022-09-15T13:44:56.575Z,97403.16
2022-09-15T13:47:31.857Z,97395.81
2022-09-15T13:50:29.669Z,97408.25
2022-09-15T13:53:17.686Z,97398.81
2022-09-15T13:55:45.505Z,97394.41
2022-09-15T14:01:06.875Z,97386.94
2022-09-15T14:03:39.035Z,97393.63
2022-09-15T14:06:24.588Z,97380.81
2022-09-15T14:08:55.920Z,97386.75
2022-09-15T14:11:30.343Z,97375.34
2022-09-15T14:13:58.281Z,97379.88
2022-09-15T14:16:24.817Z,97371.00
2022-09-15T14:18:54.127Z,97374.22
2022-09-15T14:21:23.518Z,97353.78
2022-09-15T14:23:52.735Z,97359.47
2022-09-15T14:26:23.495Z,97361.19
2022-09-15T14:28:56.932Z,97366.72
2022-09-15T14:31:37.781Z,97362.66
2022-09-15T14:34:14.587Z,97364.59
2022-09-15T14:36:41.605Z,97363.22
2022-09-15T14:39:11.198Z,97377.63
2022-09-15T14:41:40.142Z,97374.75
2022-09-15T14:47:14.092Z,97363.75
2022-09-15T14:49:40.748Z,97366.59
2022-09-15T14:52:22.765Z,97363.47
2022-09-15T14:54:50.413Z,97337.56
2022-09-15T14:57:21.020Z,97355.63
2022-09-15T14:59:53.877Z,97368.13
2022-09-15T15:02:39.181Z,97363.47
2022-09-15T15:05:15.229Z,97350.31
2022-09-15T15:07:43.437Z,97356.78
2022-09-15T15:10:29.271Z,97362.69
2022-09-15T15:13:09.252Z,97361.38
2022-09-15T15:15:38.324Z,97374.28
2022-09-15T15:18:30.900Z,97359.38
2022-09-15T15:20:58.838Z,97367.69
2022-09-15T15:23:26.401Z,97368.38
2022-09-15T15:25:54.045Z,97365.06
2022-09-15T15:28:33.838Z,97376.22
2022-09-15T15:31:17.011Z,97366.97
2022-09-15T15:33:47.583Z,97372.78
2022-09-15T15:36:14.472Z,97377.47
2022-09-15T15:38:47.697Z,97381.06
2022-09-15T15:41:36.684Z,97390.41
2022-09-15T15:44:25.371Z,97394.81
2022-09-15T15:47:00.128Z,97397.09
2022-09-15T15:49:29.702Z,97384.44
2022-09-15T15:51:57.887Z,97395.28
2022-09-15T15:54:25.429Z,97402.59
2022-09-15T15:56:53.110Z,97402.03
2022-09-15T15:59:20.292Z,97401.81
2022-09-15T16:01:50.944Z,97398.81
2022-09-15T16:04:17.729Z,97384.72
2022-09-15T16:06:45.089Z,97408.50
2022-09-15T16:09:21.965Z,97405.53
2022-09-15T16:11:48.882Z,97419.81
2022-09-15T16:14:15.439Z,97413.31
2022-09-15T16:16:42.067Z,97415.97
2022-09-15T16:19:08.696Z,97413.72
2022-09-15T16:21:39.527Z,97418.84
2022-09-15T16:24:10.482Z,97417.41
2022-09-15T16:26:38.152Z,97431.44
2022-09-15T16:29:05.028Z,97427.97
2022-09-15T16:31:33.232Z,97434.09
2022-09-15T16:33:59.854Z,97442.69
2022-09-15T16:36:27.302Z,97433.81
2022-09-15T16:38:53.998Z,97433.03
2022-09-15T16:41:23.542Z,97437.38
2022-09-15T16:43:50.109Z,97433.56
2022-09-15T16:46:17.370Z,97434.69
2022-09-15T16:48:47.103Z,97437.41
2022-09-15T16:51:25.182Z,97443.97
2022-09-15T16:53:53.901Z,97418.59
2022-09-15T16:56:20.405Z,97419.19
2022-09-15T16:58:46.949Z,97431.44
2022-09-15T17:01:18.758Z,97432.75
2022-09-15T17:03:45.816Z,97419.75
2022-09-15T17:06:14.432Z,97435.16
2022-09-15T17:08:41.847Z,97421.25
2022-09-15T17:11:16.470Z,97430.72
2022-09-15T17:13:44.755Z,97433.13
2022-09-15T17:16:13.973Z,97429.66
2022-09-15T17:18:40.799Z,97434.81
2022-09-15T17:21:10.485Z,97426.72
2022-09-15T17:23:38.957Z,97427.00
2022-09-15T17:26:13.778Z,97437.25
2022-09-15T17:28:41.117Z,97440.72
2022-09-15T17:31:16.200Z,97435.75
2022-09-15T17:33:43.710Z,97446.75
2022-09-15T17:36:10.324Z,97447.34
2022-09-15T17:38:36.938Z,97439.03
2022-09-15T17:41:03.515Z,97453.00
2022-09-15T17:43:31.893Z,97456.41
2022-09-15T17:45:58.598Z,97435.38
2022-09-15T17:48:25.439Z,97443.72
2022-09-15T17:50:52.453Z,97457.97
2022-09-15T17:53:26.683Z,97460.06
2022-09-15T17:55:55.494Z,97449.59
2022-09-15T17:58:23.458Z,97464.84
2022-09-15T18:00:50.409Z,97460.44
2022-09-15T18:03:22.814Z,97460.31
2022-09-15T18:05:50.464Z,97464.22
2022-09-15T18:08:17.196Z,97450.81
2022-09-15T18:10:44.115Z,97454.75
2022-09-15T18:13:15.621Z,97468.84
2022-09-15T18:15:42.932Z,97476.44
2022-09-15T18:18:14.187Z,97480.94
2022-09-15T18:20:41.029Z,97485.34
2022-09-15T18:23:12.370Z,97487.00
2022-09-15T18:25:39.143Z,97473.09
2022-09-15T18:28:09.100Z,97480.34
2022-09-15T18:30:41.117Z,97466.47
2022-09-15T18:33:13.296Z,97489.47
2022-09-15T18:35:41.347Z,97490.19
2022-09-15T18:38:08.496Z,97467.47
2022-09-15T18:40:37.254Z,97478.56
2022-09-15T18:43:06.382Z,97489.34
2022-09-15T18:45:32.937Z,97505.75
2022-09-15T18:47:59.603Z,97485.91
2022-09-15T18:50:26.590Z,97498.31
2022-09-15T18:52:53.405Z,97505.97
2022-09-15T18:55:21.827Z,97515.25
2022-09-15T18:57:49.153Z,97485.81
2022-09-15T19:00:19.316Z,97482.31
2022-09-15T19:02:46.352Z,97500.50
2022-09-15T19:05:15.921Z,97510.94
2022-09-15T19:07:46.127Z,97509.00
2022-09-15T19:10:16.199Z,97499.03
2022-09-15T19:12:43.630Z,97522.69
2022-09-15T19:15:12.347Z,97517.38
2022-09-15T19:17:40.074Z,97522.81
2022-09-15T19:20:09.920Z,97541.25
2022-09-15T19:22:40.069Z,97518.03
2022-09-15T19:25:11.116Z,97545.34
2022-09-15T19:27:39.063Z,97549.00
2022-09-15T19:30:07.272Z,97539.34
2022-09-15T19:32:34.001Z,97536.69
2022-09-15T19:35:00.755Z,97539.78
2022-09-15T19:37:27.638Z,97552.84
2022-09-15T19:39:54.828Z,97548.97
2022-09-15T19:42:21.831Z,97548.19
2022-09-15T19:44:52.542Z,97530.78
2022-09-15T19:47:19.159Z,97534.19
2022-09-15T19:49:45.780Z,97544.72
2022-09-15T19:52:12.935Z,97546.59
2022-09-15T19:54:39.765Z,97523.16
2022-09-15T19:57:08.881Z,97555.69
2022-09-15T19:59:35.467Z,97554.91
2022-09-15T20:02:02.673Z,97546.59
2022-09-15T20:07:13.117Z,97560.03
2022-09-15T20:09:39.880Z,97538.81
2022-09-15T20:12:09.721Z,97553.28
2022-09-15T20:14:37.638Z,97564.38
2022-09-15T20:17:04.351Z,97559.81
2022-09-15T20:19:30.891Z,97559.28
2022-09-15T20:21:59.819Z,97557.44
2022-09-15T20:24:26.360Z,97557.22
2022-09-15T20:26:52.968Z,97554.75
2022-09-15T20:29:20.068Z,97558.75
2022-09-15T20:31:47.606Z,97565.97
2022-09-15T20:34:14.081Z,97559.78
2022-09-15T20:36:40.757Z,97547.41
2022-09-15T20:39:10.639Z,97565.03
2022-09-15T20:41:40.494Z,97570.44
2022-09-15T20:44:11.481Z,97544.38
2022-09-15T20:46:41.258Z,97574.53
2022-09-15T20:49:08.233Z,97569.38
2022-09-15T20:51:35.214Z,97580.25
2022-09-15T20:54:03.738Z,97575.22
2022-09-15T20:56:31.734Z,97586.09
2022-09-15T20:59:00.003Z,97591.69
2022-09-15T21:01:32.710Z,97598.09
2022-09-15T21:03:59.360Z,97576.00
2022-09-15T21:06:27.644Z,97586.41
2022-09-15T21:08:56.569Z,97593.91
2022-09-15T21:11:24.488Z,97596.97
2022-09-15T21:13:51.112Z,97585.38
2022-09-15T21:16:21.014Z,97589.44
2022-09-15T21:18:48.416Z,97612.28
2022-09-15T21:21:23.461Z,97610.75
2022-09-15T21:23:53.260Z,97608.75
2022-09-15T21:26:22.714Z,97615.50
2022-09-15T21:28:49.612Z,97603.13
2022-09-15T21:31:21.906Z,97601.63
2022-09-15T21:33:49.341Z,97607.22
2022-09-15T21:36:19.036Z,97613.28
2022-09-15T21:38:45.691Z,97607.69
2022-09-15T21:41:15.050Z,97617.72
2022-09-15T21:43:43.637Z,97597.16
2022-09-15T21:46:12.770Z,97621.81
2022-09-15T21:48:42.787Z,97614.22
2022-09-15T21:51:12.950Z,97591.53
2022-09-15T21:53:39.595Z,97592.59
2022-09-15T21:56:09.046Z,97613.63
2022-09-15T21:58:42.397Z,97618.53
2022-09-15T22:01:20.571Z,97600.31
2022-09-15T22:03:55.228Z,97617.94
2022-09-15T22:06:29.180Z,97619.94
2022-09-15T22:08:56.124Z,97621.22
2022-09-15T22:11:23.738Z,97623.69
2022-09-15T22:13:50.905Z,97621.81
2022-09-15T22:16:21.159Z,97622.03
2022-09-15T22:18:48.246Z,97601.00
2022-09-15T22:21:26.738Z,97612.78
2022-09-15T22:23:59.193Z,97623.31
2022-09-15T22:26:28.089Z,97616.78
2022-09-15T22:28:56.176Z,97598.78
2022-09-15T22:31:24.176Z,97620.41
2022-09-15T22:33:51.223Z,97610.91
2022-09-15T22:36:27.956Z,97614.66
2022-09-15T22:38:56.340Z,97620.16
2022-09-15T22:41:25.811Z,97622.47
2022-09-15T22:43:52.400Z,97603.69
2022-09-15T22:46:19.795Z,97621.66
2022-09-15T22:48:46.482Z,97615.56
2022-09-15T22:51:15.184Z,97618.97
2022-09-15T22:53:41.761Z,97605.44
2022-09-15T22:56:19.764Z,97618.41
2022-09-15T22:58:48.411Z,97618.25
2022-09-15T23:01:21.172Z,97613.03
2022-09-15T23:03:52.559Z,97592.69
2022-09-15T23:06:20.438Z,97585.47
2022-09-15T23:08:54.719Z,97611.06
2022-09-15T23:11:22.135Z,97602.16
2022-09-15T23:13:49.009Z,97593.41
2022-09-15T23:16:18.936Z,97605.47
2022-09-15T23:18:48.361Z,97605.00
2022-09-15T23:21:17.371Z,97604.63
2022-09-15T23:23:47.291Z,97600.88
2022-09-15T23:26:13.982Z,97594.59
2022-09-15T23:28:40.572Z,97601.59
2022-09-15T23:31:08.483Z,97590.63
2022-09-15T23:33:35.130Z,97592.69
2022-09-15T23:36:03.033Z,97583.94
2022-09-15T23:38:30.683Z,97597.84
2022-09-15T23:40:57.747Z,97592.22
2022-09-15T23:43:24.399Z,97598.31
2022-09-15T23:45:51.296Z,97592.84
2022-09-15T23:48:20.926Z,97590.38
2022-09-15T23:50:47.727Z,97595.28
2022-09-15T23:53:14.249Z,97580.56
2022-09-15T23:55:40.793Z,97591.66
2022-09-15T23:58:07.407Z,97591.41
